sensor_id;sensor_type;location;lat;lon;timestamp;pressure;altitude;pressure_sealevel;temperature;humidity
65013;BME280;51715;39.432;-77.518;2023-12-20T00:00:11;100600.89;;;2.28;30.98
65013;BME280;51715;39.432;-77.518;2023-12-20T00:02:42;100606.27;;;3.10;30.07
65013;BME280;51715;39.432;-77.518;2023-12-20T00:05:10;100606.62;;;2.88;29.86
65013;BME280;51715;39.432;-77.518;2023-12-20T00:07:38;100605.30;;;2.95;29.58
65013;BME280;51715;39.432;-77.518;2023-12-20T00:10:09;100600.31;;;2.96;29.42
65013;BME280;51715;39.432;-77.518;2023-12-20T00:12:39;100601.46;;;1.75;30.94
65013;BME280;51715;39.432;-77.518;2023-12-20T00:15:12;100604.22;;;1.60;31.98
65013;BME280;51715;39.432;-77.518;2023-12-20T00:17:45;100600.95;;;2.23;30.90
65013;BME280;51715;39.432;-77.518;2023-12-20T00:20:14;100604.18;;;2.58;30.26
65013;BME280;51715;39.432;-77.518;2023-12-20T00:22:44;100603.52;;;3.22;29.88
65013;BME280;51715;39.432;-77.518;2023-12-20T00:25:14;100605.69;;;2.97;29.98
65013;BME280;51715;39.432;-77.518;2023-12-20T00:27:46;100609.41;;;2.63;30.35
65013;BME280;51715;39.432;-77.518;2023-12-20T00:30:15;100615.50;;;2.91;30.21
65013;BME280;51715;39.432;-77.518;2023-12-20T00:32:48;100621.39;;;2.57;30.51
65013;BME280;51715;39.432;-77.518;2023-12-20T00:35:19;100627.31;;;2.02;31.20
65013;BME280;51715;39.432;-77.518;2023-12-20T00:37:52;100638.01;;;2.33;31.17
65013;BME280;51715;39.432;-77.518;2023-12-20T00:40:26;100642.40;;;1.79;31.56
65013;BME280;51715;39.432;-77.518;2023-12-20T00:42:57;100648.33;;;2.49;30.81
65013;BME280;51715;39.432;-77.518;2023-12-20T00:45:27;100653.99;;;1.32;32.67
65013;BME280;51715;39.432;-77.518;2023-12-20T00:48:03;100657.71;;;2.42;31.77
65013;BME280;51715;39.432;-77.518;2023-12-20T00:50:33;100657.43;;;1.94;31.97
65013;BME280;51715;39.432;-77.518;2023-12-20T00:53:04;100654.72;;;2.31;31.49
65013;BME280;51715;39.432;-77.518;2023-12-20T00:55:32;100654.45;;;2.35;31.43
65013;BME280;51715;39.432;-77.518;2023-12-20T00:58:04;100657.38;;;1.35;32.32
65013;BME280;51715;39.432;-77.518;2023-12-20T01:00:38;100660.26;;;2.00;32.16
65013;BME280;51715;39.432;-77.518;2023-12-20T01:03:08;100654.99;;;2.01;31.64
65013;BME280;51715;39.432;-77.518;2023-12-20T01:05:38;100663.00;;;2.26;31.38
65013;BME280;51715;39.432;-77.518;2023-12-20T01:08:07;100667.73;;;2.08;31.97
65013;BME280;51715;39.432;-77.518;2023-12-20T01:10:37;100671.18;;;2.62;31.31
65013;BME280;51715;39.432;-77.518;2023-12-20T01:13:07;100673.79;;;2.69;30.96
65013;BME280;51715;39.432;-77.518;2023-12-20T01:15:37;100675.85;;;2.86;30.60
65013;BME280;51715;39.432;-77.518;2023-12-20T01:18:10;100675.96;;;2.97;30.57
65013;BME280;51715;39.432;-77.518;2023-12-20T01:20:42;100681.69;;;1.47;32.56
65013;BME280;51715;39.432;-77.518;2023-12-20T01:23:15;100682.75;;;1.77;31.75
65013;BME280;51715;39.432;-77.518;2023-12-20T01:25:45;100688.60;;;2.46;31.32
65013;BME280;51715;39.432;-77.518;2023-12-20T01:28:19;100692.52;;;2.57;30.86
65013;BME280;51715;39.432;-77.518;2023-12-20T01:30:48;100704.91;;;2.12;31.10
65013;BME280;51715;39.432;-77.518;2023-12-20T01:33:17;100709.29;;;2.01;31.46
65013;BME280;51715;39.432;-77.518;2023-12-20T01:35:46;100710.61;;;1.96;30.98
65013;BME280;51715;39.432;-77.518;2023-12-20T01:38:16;100713.52;;;2.65;30.26
65013;BME280;51715;39.432;-77.518;2023-12-20T01:40:45;100718.22;;;2.87;29.93
65013;BME280;51715;39.432;-77.518;2023-12-20T01:43:14;100723.46;;;1.90;30.96
65013;BME280;51715;39.432;-77.518;2023-12-20T01:45:43;100726.93;;;2.48;30.57
65013;BME280;51715;39.432;-77.518;2023-12-20T01:48:14;100731.35;;;2.26;30.49
65013;BME280;51715;39.432;-77.518;2023-12-20T01:50:46;100734.50;;;2.59;30.04
65013;BME280;51715;39.432;-77.518;2023-12-20T01:53:16;100737.98;;;1.79;31.04
65013;BME280;51715;39.432;-77.518;2023-12-20T01:55:45;100742.36;;;2.09;30.54
65013;BME280;51715;39.432;-77.518;2023-12-20T01:58:14;100751.16;;;2.23;30.78
65013;BME280;51715;39.432;-77.518;2023-12-20T02:00:44;100755.81;;;1.80;31.35
65013;BME280;51715;39.432;-77.518;2023-12-20T02:03:14;100759.03;;;2.38;30.82
65013;BME280;51715;39.432;-77.518;2023-12-20T02:05:42;100761.73;;;2.44;30.16
65013;BME280;51715;39.432;-77.518;2023-12-20T02:08:14;100767.52;;;2.58;29.93
65013;BME280;51715;39.432;-77.518;2023-12-20T02:10:43;100762.51;;;1.85;30.23
65013;BME280;51715;39.432;-77.518;2023-12-20T02:13:11;100769.08;;;2.21;30.11
65013;BME280;51715;39.432;-77.518;2023-12-20T02:15:39;100770.27;;;2.32;29.89
65013;BME280;51715;39.432;-77.518;2023-12-20T02:18:07;100772.17;;;2.12;29.77
65013;BME280;51715;39.432;-77.518;2023-12-20T02:20:37;100770.36;;;2.55;29.69
65013;BME280;51715;39.432;-77.518;2023-12-20T02:23:05;100773.70;;;1.85;30.26
65013;BME280;51715;39.432;-77.518;2023-12-20T02:25:34;100774.02;;;2.34;30.06
65013;BME280;51715;39.432;-77.518;2023-12-20T02:28:03;100779.07;;;2.55;30.12
65013;BME280;51715;39.432;-77.518;2023-12-20T02:30:35;100786.33;;;1.26;31.15
65013;BME280;51715;39.432;-77.518;2023-12-20T02:33:04;100791.36;;;1.08;31.85
65013;BME280;51715;39.432;-77.518;2023-12-20T02:35:36;100792.32;;;1.50;31.46
65013;BME280;51715;39.432;-77.518;2023-12-20T02:38:05;100794.61;;;1.63;31.03
65013;BME280;51715;39.432;-77.518;2023-12-20T02:40:35;100796.67;;;1.90;30.56
65013;BME280;51715;39.432;-77.518;2023-12-20T02:43:04;100797.42;;;2.15;29.94
65013;BME280;51715;39.432;-77.518;2023-12-20T02:45:33;100798.21;;;2.09;30.53
65013;BME280;51715;39.432;-77.518;2023-12-20T02:48:02;100802.61;;;1.94;30.34
65013;BME280;51715;39.432;-77.518;2023-12-20T02:50:31;100805.79;;;2.11;30.10
65013;BME280;51715;39.432;-77.518;2023-12-20T02:53:01;100812.12;;;2.61;29.80
65013;BME280;51715;39.432;-77.518;2023-12-20T02:55:35;100812.58;;;2.30;29.82
65013;BME280;51715;39.432;-77.518;2023-12-20T02:58:04;100816.06;;;2.47;29.65
65013;BME280;51715;39.432;-77.518;2023-12-20T03:00:33;100822.93;;;2.29;29.88
65013;BME280;51715;39.432;-77.518;2023-12-20T03:03:02;100826.68;;;1.72;30.89
65013;BME280;51715;39.432;-77.518;2023-12-20T03:05:32;100828.04;;;1.69;30.61
65013;BME280;51715;39.432;-77.518;2023-12-20T03:08:01;100830.81;;;1.95;30.38
65013;BME280;51715;39.432;-77.518;2023-12-20T03:10:30;100831.30;;;2.24;30.25
65013;BME280;51715;39.432;-77.518;2023-12-20T03:13:00;100832.45;;;1.89;30.24
65013;BME280;51715;39.432;-77.518;2023-12-20T03:15:28;100834.28;;;2.18;30.05
65013;BME280;51715;39.432;-77.518;2023-12-20T03:17:57;100835.75;;;2.08;30.29
65013;BME280;51715;39.432;-77.518;2023-12-20T03:20:27;100832.32;;;2.00;30.63
65013;BME280;51715;39.432;-77.518;2023-12-20T03:22:55;100839.32;;;1.94;30.52
65013;BME280;51715;39.432;-77.518;2023-12-20T03:25:26;100845.30;;;2.00;30.51
65013;BME280;51715;39.432;-77.518;2023-12-20T03:27:57;100846.85;;;2.10;30.42
65013;BME280;51715;39.432;-77.518;2023-12-20T03:30:27;100846.47;;;2.01;30.56
65013;BME280;51715;39.432;-77.518;2023-12-20T03:32:55;100848.79;;;1.92;30.44
65013;BME280;51715;39.432;-77.518;2023-12-20T03:35:24;100851.17;;;2.33;30.16
65013;BME280;51715;39.432;-77.518;2023-12-20T03:37:52;100853.41;;;2.33;30.35
65013;BME280;51715;39.432;-77.518;2023-12-20T03:40:25;100860.93;;;2.40;30.01
65013;BME280;51715;39.432;-77.518;2023-12-20T03:42:55;100861.99;;;1.87;30.38
65013;BME280;51715;39.432;-77.518;2023-12-20T03:45:23;100865.15;;;1.83;30.63
65013;BME280;51715;39.432;-77.518;2023-12-20T03:47:52;100872.14;;;1.65;30.57
65013;BME280;51715;39.432;-77.518;2023-12-20T03:50:22;100873.72;;;2.03;30.34
65013;BME280;51715;39.432;-77.518;2023-12-20T03:52:51;100879.64;;;2.30;30.37
65013;BME280;51715;39.432;-77.518;2023-12-20T03:55:20;100883.85;;;2.28;30.41
65013;BME280;51715;39.432;-77.518;2023-12-20T03:57:48;100881.12;;;2.41;30.33
65013;BME280;51715;39.432;-77.518;2023-12-20T04:00:18;100880.08;;;2.70;30.15
65013;BME280;51715;39.432;-77.518;2023-12-20T04:02:46;100875.49;;;2.49;30.35
65013;BME280;51715;39.432;-77.518;2023-12-20T04:05:16;100873.21;;;2.43;30.39
65013;BME280;51715;39.432;-77.518;2023-12-20T04:07:46;100873.39;;;2.36;30.30
65013;BME280;51715;39.432;-77.518;2023-12-20T04:10:15;100874.41;;;2.37;30.67
65013;BME280;51715;39.432;-77.518;2023-12-20T04:12:44;100871.95;;;1.97;31.14
65013;BME280;51715;39.432;-77.518;2023-12-20T04:15:13;100874.28;;;1.98;31.62
65013;BME280;51715;39.432;-77.518;2023-12-20T04:17:42;100879.53;;;1.96;31.63
65013;BME280;51715;39.432;-77.518;2023-12-20T04:20:12;100882.19;;;1.83;31.73
65013;BME280;51715;39.432;-77.518;2023-12-20T04:22:41;100888.02;;;1.29;32.95
65013;BME280;51715;39.432;-77.518;2023-12-20T04:25:09;100891.98;;;1.38;32.78
65013;BME280;51715;39.432;-77.518;2023-12-20T04:27:43;100896.97;;;1.60;32.62
65013;BME280;51715;39.432;-77.518;2023-12-20T04:30:11;100898.17;;;1.16;33.34
65013;BME280;51715;39.432;-77.518;2023-12-20T04:32:41;100900.95;;;1.40;33.22
65013;BME280;51715;39.432;-77.518;2023-12-20T04:35:09;100902.33;;;1.37;33.33
65013;BME280;51715;39.432;-77.518;2023-12-20T04:37:39;100902.19;;;1.31;33.38
65013;BME280;51715;39.432;-77.518;2023-12-20T04:40:09;100898.13;;;1.40;33.27
65013;BME280;51715;39.432;-77.518;2023-12-20T04:42:38;100898.91;;;1.02;33.71
65013;BME280;51715;39.432;-77.518;2023-12-20T04:45:11;100905.54;;;0.19;34.66
65013;BME280;51715;39.432;-77.518;2023-12-20T04:47:38;100907.08;;;0.47;34.49
65013;BME280;51715;39.432;-77.518;2023-12-20T04:50:08;100904.74;;;0.80;34.07
65013;BME280;51715;39.432;-77.518;2023-12-20T04:52:38;100903.95;;;0.41;34.27
65013;BME280;51715;39.432;-77.518;2023-12-20T04:55:08;100906.25;;;0.40;34.13
65013;BME280;51715;39.432;-77.518;2023-12-20T04:57:36;100902.39;;;0.80;34.17
65013;BME280;51715;39.432;-77.518;2023-12-20T05:04:06;100902.10;;;0.97;32.23
65013;BME280;51715;39.432;-77.518;2023-12-20T05:06:36;100902.04;;;1.51;32.02
65013;BME280;51715;39.432;-77.518;2023-12-20T05:09:05;100901.63;;;1.22;32.22
65013;BME280;51715;39.432;-77.518;2023-12-20T05:11:32;100903.21;;;1.63;32.10
65013;BME280;51715;39.432;-77.518;2023-12-20T05:14:02;100901.99;;;1.78;31.88
65013;BME280;51715;39.432;-77.518;2023-12-20T05:16:31;100906.22;;;1.32;32.42
65013;BME280;51715;39.432;-77.518;2023-12-20T05:19:00;100903.07;;;1.64;32.19
65013;BME280;51715;39.432;-77.518;2023-12-20T05:21:29;100910.73;;;1.50;31.95
65013;BME280;51715;39.432;-77.518;2023-12-20T05:23:58;100917.16;;;1.77;31.77
65013;BME280;51715;39.432;-77.518;2023-12-20T05:26:26;100911.89;;;1.77;32.06
65013;BME280;51715;39.432;-77.518;2023-12-20T05:28:55;100906.99;;;1.75;31.81
65013;BME280;51715;39.432;-77.518;2023-12-20T05:31:25;100902.13;;;1.76;31.97
65013;BME280;51715;39.432;-77.518;2023-12-20T05:33:56;100907.35;;;0.91;32.91
65013;BME280;51715;39.432;-77.518;2023-12-20T05:36:24;100912.88;;;0.89;33.02
65013;BME280;51715;39.432;-77.518;2023-12-20T05:38:53;100922.15;;;0.84;33.37
65013;BME280;51715;39.432;-77.518;2023-12-20T05:41:21;100924.27;;;0.14;34.49
65013;BME280;51715;39.432;-77.518;2023-12-20T05:43:51;100924.71;;;0.62;33.90
65013;BME280;51715;39.432;-77.518;2023-12-20T05:46:20;100916.92;;;1.08;33.64
65013;BME280;51715;39.432;-77.518;2023-12-20T05:48:49;100912.08;;;0.91;33.46
65013;BME280;51715;39.432;-77.518;2023-12-20T05:51:18;100909.79;;;0.96;33.49
65013;BME280;51715;39.432;-77.518;2023-12-20T05:53:47;100912.86;;;0.73;33.22
65013;BME280;51715;39.432;-77.518;2023-12-20T05:56:15;100916.05;;;0.81;32.96
65013;BME280;51715;39.432;-77.518;2023-12-20T05:58:43;100918.08;;;0.97;32.73
65013;BME280;51715;39.432;-77.518;2023-12-20T06:01:14;100923.13;;;1.18;32.45
65013;BME280;51715;39.432;-77.518;2023-12-20T06:03:43;100921.30;;;1.32;32.29
65013;BME280;51715;39.432;-77.518;2023-12-20T06:06:11;100916.58;;;1.39;32.59
65013;BME280;51715;39.432;-77.518;2023-12-20T06:08:41;100915.12;;;1.43;32.59
65013;BME280;51715;39.432;-77.518;2023-12-20T06:11:09;100913.75;;;1.58;32.26
65013;BME280;51715;39.432;-77.518;2023-12-20T06:13:40;100914.90;;;1.50;32.22
65013;BME280;51715;39.432;-77.518;2023-12-20T06:16:08;100918.74;;;1.51;32.37
65013;BME280;51715;39.432;-77.518;2023-12-20T06:18:36;100923.30;;;0.99;32.87
65013;BME280;51715;39.432;-77.518;2023-12-20T06:21:06;100926.02;;;0.90;32.98
65013;BME280;51715;39.432;-77.518;2023-12-20T06:23:34;100933.72;;;1.17;33.30
65013;BME280;51715;39.432;-77.518;2023-12-20T06:26:03;100938.52;;;0.93;33.19
65013;BME280;51715;39.432;-77.518;2023-12-20T06:28:32;100939.39;;;0.65;33.37
65013;BME280;51715;39.432;-77.518;2023-12-20T06:31:00;100934.90;;;0.91;33.25
65013;BME280;51715;39.432;-77.518;2023-12-20T06:33:28;100930.86;;;1.14;33.33
65013;BME280;51715;39.432;-77.518;2023-12-20T06:35:58;100931.76;;;1.02;33.83
65013;BME280;51715;39.432;-77.518;2023-12-20T06:38:27;100931.03;;;0.75;33.73
65013;BME280;51715;39.432;-77.518;2023-12-20T06:40:56;100932.45;;;1.17;33.78
65013;BME280;51715;39.432;-77.518;2023-12-20T06:43:24;100934.00;;;1.05;33.67
65013;BME280;51715;39.432;-77.518;2023-12-20T06:45:52;100936.42;;;0.66;33.75
65013;BME280;51715;39.432;-77.518;2023-12-20T06:48:20;100933.81;;;0.66;33.61
65013;BME280;51715;39.432;-77.518;2023-12-20T06:50:48;100929.95;;;1.00;33.47
65013;BME280;51715;39.432;-77.518;2023-12-20T06:53:16;100924.10;;;0.86;33.85
65013;BME280;51715;39.432;-77.518;2023-12-20T06:55:44;100921.95;;;0.90;33.92
65013;BME280;51715;39.432;-77.518;2023-12-20T06:58:13;100921.93;;;0.55;34.22
65013;BME280;51715;39.432;-77.518;2023-12-20T07:00:41;100930.96;;;0.68;34.56
65013;BME280;51715;39.432;-77.518;2023-12-20T07:03:11;100934.15;;;0.63;34.37
65013;BME280;51715;39.432;-77.518;2023-12-20T07:05:42;100935.82;;;0.08;34.85
65013;BME280;51715;39.432;-77.518;2023-12-20T07:08:10;100932.82;;;0.58;34.62
65013;BME280;51715;39.432;-77.518;2023-12-20T07:10:38;100932.14;;;0.45;34.40
65013;BME280;51715;39.432;-77.518;2023-12-20T07:13:07;100934.39;;;0.71;34.33
65013;BME280;51715;39.432;-77.518;2023-12-20T07:15:37;100935.00;;;0.64;34.09
65013;BME280;51715;39.432;-77.518;2023-12-20T07:18:06;100937.13;;;0.90;33.67
65013;BME280;51715;39.432;-77.518;2023-12-20T07:20:35;100941.35;;;0.29;34.17
65013;BME280;51715;39.432;-77.518;2023-12-20T07:23:03;100944.60;;;0.64;33.77
65013;BME280;51715;39.432;-77.518;2023-12-20T07:25:34;100943.01;;;0.89;33.13
65013;BME280;51715;39.432;-77.518;2023-12-20T07:28:02;100948.59;;;1.13;32.86
65013;BME280;51715;39.432;-77.518;2023-12-20T07:30:30;100946.39;;;1.29;32.58
65013;BME280;51715;39.432;-77.518;2023-12-20T07:32:58;100947.19;;;0.55;33.59
65013;BME280;51715;39.432;-77.518;2023-12-20T07:35:27;100949.70;;;1.28;33.41
65013;BME280;51715;39.432;-77.518;2023-12-20T07:37:55;100952.27;;;0.73;33.79
65013;BME280;51715;39.432;-77.518;2023-12-20T07:40:23;100955.66;;;1.25;33.36
65013;BME280;51715;39.432;-77.518;2023-12-20T07:42:53;100954.03;;;1.25;33.26
65013;BME280;51715;39.432;-77.518;2023-12-20T07:45:22;100947.67;;;1.10;33.29
65013;BME280;51715;39.432;-77.518;2023-12-20T07:47:51;100947.30;;;1.23;33.18
65013;BME280;51715;39.432;-77.518;2023-12-20T07:50:21;100947.21;;;1.01;33.53
65013;BME280;51715;39.432;-77.518;2023-12-20T07:52:51;100948.02;;;0.81;33.62
65013;BME280;51715;39.432;-77.518;2023-12-20T07:55:20;100945.64;;;0.59;34.29
65013;BME280;51715;39.432;-77.518;2023-12-20T07:57:49;100945.77;;;0.86;34.07
65013;BME280;51715;39.432;-77.518;2023-12-20T08:00:19;100942.31;;;0.84;33.89
65013;BME280;51715;39.432;-77.518;2023-12-20T08:02:48;100941.99;;;0.90;33.79
65013;BME280;51715;39.432;-77.518;2023-12-20T08:05:17;100939.82;;;1.09;33.64
65013;BME280;51715;39.432;-77.518;2023-12-20T08:07:46;100944.33;;;0.41;33.64
65013;BME280;51715;39.432;-77.518;2023-12-20T08:10:14;100945.69;;;0.91;33.45
65013;BME280;51715;39.432;-77.518;2023-12-20T08:12:42;100945.75;;;1.19;33.39
65013;BME280;51715;39.432;-77.518;2023-12-20T08:15:11;100943.09;;;1.03;33.33
65013;BME280;51715;39.432;-77.518;2023-12-20T08:17:39;100943.16;;;0.70;33.89
65013;BME280;51715;39.432;-77.518;2023-12-20T08:20:09;100938.82;;;0.10;35.32
65013;BME280;51715;39.432;-77.518;2023-12-20T08:22:37;100935.28;;;-0.40;35.74
65013;BME280;51715;39.432;-77.518;2023-12-20T08:25:06;100937.28;;;0.17;34.99
65013;BME280;51715;39.432;-77.518;2023-12-20T08:27:39;100940.30;;;0.71;34.60
65013;BME280;51715;39.432;-77.518;2023-12-20T08:30:09;100947.61;;;0.82;34.30
65013;BME280;51715;39.432;-77.518;2023-12-20T08:32:38;100947.73;;;0.81;34.21
65013;BME280;51715;39.432;-77.518;2023-12-20T08:35:08;100941.39;;;0.79;34.01
65013;BME280;51715;39.432;-77.518;2023-12-20T08:37:36;100941.70;;;0.97;33.85
65013;BME280;51715;39.432;-77.518;2023-12-20T08:40:07;100939.58;;;0.80;33.92
65013;BME280;51715;39.432;-77.518;2023-12-20T08:42:35;100934.46;;;0.38;34.33
65013;BME280;51715;39.432;-77.518;2023-12-20T08:45:04;100934.65;;;0.56;34.30
65013;BME280;51715;39.432;-77.518;2023-12-20T08:47:33;100934.58;;;0.71;34.12
65013;BME280;51715;39.432;-77.518;2023-12-20T08:50:03;100933.67;;;0.65;33.83
65013;BME280;51715;39.432;-77.518;2023-12-20T08:52:34;100928.50;;;0.49;33.92
65013;BME280;51715;39.432;-77.518;2023-12-20T08:55:02;100928.68;;;0.41;33.97
65013;BME280;51715;39.432;-77.518;2023-12-20T08:57:31;100931.56;;;0.77;33.79
65013;BME280;51715;39.432;-77.518;2023-12-20T09:00:01;100931.33;;;0.99;33.89
65013;BME280;51715;39.432;-77.518;2023-12-20T09:02:31;100932.70;;;0.55;34.18
65013;BME280;51715;39.432;-77.518;2023-12-20T09:04:59;100937.15;;;0.69;34.19
65013;BME280;51715;39.432;-77.518;2023-12-20T09:07:28;100933.51;;;0.38;34.20
65013;BME280;51715;39.432;-77.518;2023-12-20T09:09:56;100933.92;;;0.99;33.95
65013;BME280;51715;39.432;-77.518;2023-12-20T09:12:25;100930.61;;;0.80;33.96
65013;BME280;51715;39.432;-77.518;2023-12-20T09:14:52;100925.35;;;0.85;33.88
65013;BME280;51715;39.432;-77.518;2023-12-20T09:17:20;100921.56;;;0.58;34.05
65013;BME280;51715;39.432;-77.518;2023-12-20T09:19:49;100915.71;;;0.62;34.08
65013;BME280;51715;39.432;-77.518;2023-12-20T09:22:18;100911.99;;;0.71;34.35
65013;BME280;51715;39.432;-77.518;2023-12-20T09:24:46;100911.81;;;0.86;34.26
65013;BME280;51715;39.432;-77.518;2023-12-20T09:27:14;100915.04;;;0.90;34.22
65013;BME280;51715;39.432;-77.518;2023-12-20T09:29:44;100916.43;;;0.12;35.07
65013;BME280;51715;39.432;-77.518;2023-12-20T09:32:12;100920.81;;;0.37;34.72
65013;BME280;51715;39.432;-77.518;2023-12-20T09:34:40;100919.62;;;0.24;34.69
65013;BME280;51715;39.432;-77.518;2023-12-20T09:37:09;100915.95;;;0.20;34.48
65013;BME280;51715;39.432;-77.518;2023-12-20T09:39:37;100918.05;;;-0.02;34.91
65013;BME280;51715;39.432;-77.518;2023-12-20T09:42:07;100920.12;;;0.08;34.89
65013;BME280;51715;39.432;-77.518;2023-12-20T09:44:35;100920.72;;;0.29;34.55
65013;BME280;51715;39.432;-77.518;2023-12-20T09:47:05;100919.63;;;0.62;34.24
65013;BME280;51715;39.432;-77.518;2023-12-20T09:49:33;100924.60;;;0.86;33.93
65013;BME280;51715;39.432;-77.518;2023-12-20T09:52:05;100921.62;;;0.87;33.70
65013;BME280;51715;39.432;-77.518;2023-12-20T09:54:35;100918.38;;;0.94;33.45
65013;BME280;51715;39.432;-77.518;2023-12-20T09:57:04;100916.77;;;0.81;33.24
65013;BME280;51715;39.432;-77.518;2023-12-20T09:59:32;100923.18;;;0.41;33.74
65013;BME280;51715;39.432;-77.518;2023-12-20T10:02:02;100923.26;;;0.77;33.70
65013;BME280;51715;39.432;-77.518;2023-12-20T10:04:36;100923.36;;;0.29;34.65
65013;BME280;51715;39.432;-77.518;2023-12-20T10:07:05;100923.00;;;0.60;34.16
65013;BME280;51715;39.432;-77.518;2023-12-20T10:09:33;100927.21;;;0.70;33.91
65013;BME280;51715;39.432;-77.518;2023-12-20T10:12:02;100931.82;;;0.21;33.86
65013;BME280;51715;39.432;-77.518;2023-12-20T10:14:31;100934.70;;;0.53;34.17
65013;BME280;51715;39.432;-77.518;2023-12-20T10:17:03;100940.24;;;0.41;34.27
65013;BME280;51715;39.432;-77.518;2023-12-20T10:19:31;100940.60;;;0.13;34.65
65013;BME280;51715;39.432;-77.518;2023-12-20T10:22:04;100946.89;;;-0.07;34.86
65013;BME280;51715;39.432;-77.518;2023-12-20T10:24:32;100945.41;;;0.25;34.60
65013;BME280;51715;39.432;-77.518;2023-12-20T10:27:06;100945.50;;;0.19;34.61
65013;BME280;51715;39.432;-77.518;2023-12-20T10:29:36;100944.57;;;0.33;34.50
65013;BME280;51715;39.432;-77.518;2023-12-20T10:32:23;100938.18;;;0.42;34.51
65013;BME280;51715;39.432;-77.518;2023-12-20T10:34:53;100936.36;;;0.46;34.44
65013;BME280;51715;39.432;-77.518;2023-12-20T10:37:21;100939.25;;;0.25;34.62
65013;BME280;51715;39.432;-77.518;2023-12-20T10:39:51;100939.09;;;0.23;34.80
65013;BME280;51715;39.432;-77.518;2023-12-20T10:42:21;100941.10;;;0.22;34.70
65013;BME280;51715;39.432;-77.518;2023-12-20T10:44:50;100941.68;;;0.26;34.72
65013;BME280;51715;39.432;-77.518;2023-12-20T10:47:22;100939.49;;;0.19;34.63
65013;BME280;51715;39.432;-77.518;2023-12-20T10:49:52;100941.41;;;0.25;34.67
65013;BME280;51715;39.432;-77.518;2023-12-20T10:52:23;100943.72;;;0.32;34.70
65013;BME280;51715;39.432;-77.518;2023-12-20T10:54:51;100941.41;;;0.33;34.63
65013;BME280;51715;39.432;-77.518;2023-12-20T10:57:21;100942.66;;;0.40;34.47
65013;BME280;51715;39.432;-77.518;2023-12-20T10:59:54;100941.55;;;0.29;34.77
65013;BME280;51715;39.432;-77.518;2023-12-20T11:02:22;100946.10;;;0.34;34.82
65013;BME280;51715;39.432;-77.518;2023-12-20T11:04:56;100950.63;;;0.39;34.80
65013;BME280;51715;39.432;-77.518;2023-12-20T11:07:33;100952.40;;;0.66;34.46
65013;BME280;51715;39.432;-77.518;2023-12-20T11:10:12;100958.09;;;0.69;34.35
65013;BME280;51715;39.432;-77.518;2023-12-20T11:12:48;100959.88;;;0.46;34.50
65013;BME280;51715;39.432;-77.518;2023-12-20T11:15:20;100964.27;;;0.84;34.28
65013;BME280;51715;39.432;-77.518;2023-12-20T11:17:55;100968.70;;;0.74;34.20
65013;BME280;51715;39.432;-77.518;2023-12-20T11:20:24;100970.33;;;0.48;34.71
65013;BME280;51715;39.432;-77.518;2023-12-20T11:22:58;100971.06;;;-0.06;35.42
65013;BME280;51715;39.432;-77.518;2023-12-20T11:25:26;100969.94;;;0.05;35.60
65013;BME280;51715;39.432;-77.518;2023-12-20T11:28:09;100971.47;;;0.37;34.97
65013;BME280;51715;39.432;-77.518;2023-12-20T11:30:53;100979.85;;;0.55;34.78
65013;BME280;51715;39.432;-77.518;2023-12-20T11:33:23;100984.18;;;0.38;34.88
65013;BME280;51715;39.432;-77.518;2023-12-20T11:35:52;100989.09;;;0.41;34.68
65013;BME280;51715;39.432;-77.518;2023-12-20T11:38:23;100993.47;;;0.15;34.91
65013;BME280;51715;39.432;-77.518;2023-12-20T11:40:53;100988.90;;;0.40;34.70
65013;BME280;51715;39.432;-77.518;2023-12-20T11:43:38;100993.60;;;0.52;34.45
65013;BME280;51715;39.432;-77.518;2023-12-20T11:46:08;100991.34;;;0.57;34.38
65013;BME280;51715;39.432;-77.518;2023-12-20T11:48:40;100993.57;;;0.62;34.29
65013;BME280;51715;39.432;-77.518;2023-12-20T11:51:11;100992.43;;;0.45;34.25
65013;BME280;51715;39.432;-77.518;2023-12-20T11:53:40;100994.48;;;0.71;34.13
65013;BME280;51715;39.432;-77.518;2023-12-20T11:56:09;101000.02;;;0.43;34.45
65013;BME280;51715;39.432;-77.518;2023-12-20T11:58:38;101003.47;;;0.32;34.76
65013;BME280;51715;39.432;-77.518;2023-12-20T12:01:07;101004.73;;;0.34;34.86
65013;BME280;51715;39.432;-77.518;2023-12-20T12:03:35;101006.90;;;0.56;34.81
65013;BME280;51715;39.432;-77.518;2023-12-20T12:06:04;101011.15;;;0.40;34.76
65013;BME280;51715;39.432;-77.518;2023-12-20T12:08:32;101011.67;;;-0.07;35.17
65013;BME280;51715;39.432;-77.518;2023-12-20T12:11:01;101011.57;;;-0.06;35.17
65013;BME280;51715;39.432;-77.518;2023-12-20T12:13:29;101020.90;;;0.11;35.15
65013;BME280;51715;39.432;-77.518;2023-12-20T12:15:59;101023.82;;;0.47;35.10
65013;BME280;51715;39.432;-77.518;2023-12-20T12:18:28;101027.88;;;0.47;34.93
65013;BME280;51715;39.432;-77.518;2023-12-20T12:21:01;101030.77;;;0.31;34.95
65013;BME280;51715;39.432;-77.518;2023-12-20T12:23:29;101033.29;;;0.53;34.75
65013;BME280;51715;39.432;-77.518;2023-12-20T12:25:57;101035.28;;;0.08;35.57
65013;BME280;51715;39.432;-77.518;2023-12-20T12:28:27;101035.27;;;0.22;35.40
65013;BME280;51715;39.432;-77.518;2023-12-20T12:30:59;101035.02;;;-0.10;34.86
65013;BME280;51715;39.432;-77.518;2023-12-20T12:33:29;101037.40;;;0.61;34.73
65013;BME280;51715;39.432;-77.518;2023-12-20T12:35:57;101041.53;;;-0.03;35.34
65013;BME280;51715;39.432;-77.518;2023-12-20T12:38:28;101038.44;;;0.15;35.05
65013;BME280;51715;39.432;-77.518;2023-12-20T12:40:58;101044.37;;;0.14;34.73
65013;BME280;51715;39.432;-77.518;2023-12-20T12:43:28;101048.49;;;0.38;34.70
65013;BME280;51715;39.432;-77.518;2023-12-20T12:45:56;101049.34;;;0.35;34.47
65013;BME280;51715;39.432;-77.518;2023-12-20T12:48:24;101045.91;;;0.69;34.45
65013;BME280;51715;39.432;-77.518;2023-12-20T12:50:53;101047.28;;;0.49;34.38
65013;BME280;51715;39.432;-77.518;2023-12-20T12:53:21;101048.16;;;0.14;35.00
65013;BME280;51715;39.432;-77.518;2023-12-20T12:55:50;101049.54;;;0.57;34.67